createdAt,value
2023-01-28T00:00:55.337Z,7
2023-01-28T00:01:55.326Z,6
2023-01-28T00:02:55.348Z,7
2023-01-28T00:03:55.445Z,7
2023-01-28T00:04:55.324Z,6
2023-01-28T00:05:55.363Z,11
2023-01-28T00:06:55.315Z,7
2023-01-28T00:07:55.325Z,8
2023-01-28T00:08:55.321Z,8
2023-01-28T00:09:55.317Z,8
2023-01-28T00:10:55.315Z,7
2023-01-28T00:12:55.322Z,8
2023-01-28T00:13:55.326Z,7
2023-01-28T00:14:55.305Z,8
2023-01-28T00:15:55.351Z,6
2023-01-28T00:16:55.314Z,7
2023-01-28T00:17:55.318Z,7
2023-01-28T00:18:55.323Z,8
2023-01-28T00:19:55.319Z,7
2023-01-28T00:20:55.304Z,9
2023-01-28T00:22:55.318Z,8
2023-01-28T00:23:55.403Z,8
2023-01-28T00:24:55.328Z,7
2023-01-28T00:25:55.329Z,7
2023-01-28T00:26:55.326Z,6
2023-01-28T00:27:55.413Z,8
2023-01-28T00:28:55.390Z,6
2023-01-28T00:29:55.388Z,6
2023-01-28T00:30:55.369Z,7
2023-01-28T00:31:55.352Z,8
2023-01-28T00:32:55.330Z,8
2023-01-28T00:33:55.336Z,7
2023-01-28T00:34:55.313Z,10
2023-01-28T00:35:55.354Z,6
2023-01-28T00:36:55.358Z,6
2023-01-28T00:37:55.333Z,8
2023-01-28T00:55:55.316Z,8
2023-01-28T00:57:55.369Z,7
2023-01-28T00:58:55.316Z,6
2023-01-28T01:00:55.342Z,6
2023-01-28T01:01:55.333Z,6
2023-01-28T01:03:55.342Z,7
2023-01-28T01:05:55.333Z,6
2023-01-28T01:06:55.354Z,6
2023-01-28T01:08:55.332Z,5
2023-01-28T01:09:55.335Z,6
2023-01-28T01:11:55.334Z,6
2023-01-28T01:13:55.332Z,5
2023-01-28T01:14:55.315Z,8
2023-01-28T01:15:55.365Z,7
2023-01-28T01:18:55.325Z,6
2023-01-28T01:19:55.387Z,6
2023-01-28T01:20:55.348Z,6
2023-01-28T01:21:55.336Z,6
2023-01-28T01:22:55.327Z,7
2023-01-28T01:23:55.379Z,6
2023-01-28T01:24:55.332Z,5
2023-01-28T01:25:55.314Z,7
2023-01-28T01:26:55.321Z,7
2023-01-28T01:27:55.319Z,5
2023-01-28T01:28:55.347Z,6
2023-01-28T01:29:55.411Z,8
2023-01-28T01:30:55.350Z,6
2023-01-28T01:31:55.437Z,7
2023-01-28T01:32:55.344Z,6
2023-01-28T01:33:55.344Z,6
2023-01-28T01:34:55.335Z,6
2023-01-28T01:35:55.330Z,7
2023-01-28T01:36:55.337Z,6
2023-01-28T01:37:55.337Z,5
2023-01-28T01:38:55.735Z,7
2023-01-28T01:39:55.345Z,7
2023-01-28T01:40:55.347Z,5
2023-01-28T01:41:55.343Z,8
2023-01-28T01:42:55.349Z,6
2023-01-28T01:43:55.340Z,5
2023-01-28T01:44:55.358Z,6
2023-01-28T01:45:55.387Z,7
2023-01-28T01:46:55.397Z,6
2023-01-28T01:48:55.333Z,6
2023-01-28T01:49:55.327Z,7
2023-01-28T01:50:55.347Z,6
2023-01-28T01:51:55.399Z,5
2023-01-28T01:52:55.321Z,5
2023-01-28T01:53:55.346Z,5
2023-01-28T01:54:55.337Z,6
2023-01-28T01:55:55.347Z,8
2023-01-28T01:56:55.352Z,8
2023-01-28T01:57:55.347Z,8
2023-01-28T01:58:55.351Z,10
2023-01-28T01:59:55.348Z,9
2023-01-28T02:00:55.356Z,10
2023-01-28T02:01:55.405Z,10
2023-01-28T02:02:55.320Z,9
2023-01-28T02:03:55.393Z,10
2023-01-28T02:04:55.356Z,9
2023-01-28T02:05:55.333Z,9
2023-01-28T02:06:55.368Z,10
2023-01-28T02:07:55.334Z,10
2023-01-28T02:08:55.336Z,11
2023-01-28T02:09:55.372Z,12
2023-01-28T02:10:55.501Z,11
2023-01-28T02:12:55.325Z,12
2023-01-28T02:13:57.158Z,11
2023-01-28T02:25:55.332Z,11
2023-01-28T02:30:55.416Z,9
2023-01-28T02:32:55.340Z,11
2023-01-28T02:33:55.362Z,8
2023-01-28T02:35:55.390Z,8
2023-01-28T02:36:55.460Z,9
2023-01-28T02:38:55.349Z,8
2023-01-28T02:40:55.406Z,8
2023-01-28T02:41:55.352Z,7
2023-01-28T02:42:55.348Z,8
2023-01-28T02:43:55.334Z,7
2023-01-28T02:44:55.356Z,7
2023-01-28T02:46:55.338Z,7
2023-01-28T02:48:55.331Z,9
2023-01-28T02:49:55.330Z,7
2023-01-28T02:50:55.333Z,7
2023-01-28T02:51:55.337Z,6
2023-01-28T02:54:55.340Z,7
2023-01-28T02:55:55.342Z,6
2023-01-28T02:56:55.354Z,8
2023-01-28T02:57:55.494Z,7
2023-01-28T02:58:55.336Z,7
2023-01-28T02:59:55.339Z,7
2023-01-28T03:00:55.357Z,7
2023-01-28T03:01:55.368Z,8
2023-01-28T03:02:55.419Z,8
2023-01-28T03:03:55.352Z,8
2023-01-28T03:04:55.396Z,7
2023-01-28T03:05:55.345Z,7
2023-01-28T03:06:55.355Z,7
2023-01-28T03:07:55.361Z,7
2023-01-28T03:08:55.350Z,9
2023-01-28T03:09:55.422Z,6
2023-01-28T03:10:55.341Z,7
2023-01-28T03:11:55.396Z,6
2023-01-28T03:12:55.350Z,6
2023-01-28T03:13:55.336Z,6
2023-01-28T03:14:55.361Z,9
2023-01-28T03:15:55.401Z,7
2023-01-28T03:16:55.351Z,8
2023-01-28T03:17:55.348Z,7
2023-01-28T03:18:55.333Z,8
2023-01-28T03:19:55.345Z,8
2023-01-28T03:20:55.340Z,7
2023-01-28T03:21:55.335Z,8
2023-01-28T03:22:55.352Z,7
2023-01-28T03:23:55.392Z,7
2023-01-28T03:24:55.342Z,7
2023-01-28T03:25:55.354Z,7
2023-01-28T03:26:55.392Z,6
2023-01-28T03:27:55.350Z,7
2023-01-28T03:28:55.334Z,6
2023-01-28T03:29:55.339Z,6
2023-01-28T03:30:55.392Z,6
2023-01-28T03:32:55.355Z,7
2023-01-28T03:33:55.344Z,8
2023-01-28T03:34:55.343Z,9
2023-01-28T03:35:55.478Z,8
2023-01-28T03:36:55.349Z,8
2023-01-28T03:37:55.345Z,8
2023-01-28T03:38:55.353Z,7
2023-01-28T03:39:55.356Z,8
2023-01-28T03:40:55.347Z,8
2023-01-28T03:41:55.356Z,8
2023-01-28T03:42:55.385Z,9
2023-01-28T03:43:55.355Z,8
2023-01-28T03:44:55.349Z,9
2023-01-28T03:45:55.360Z,8
2023-01-28T03:46:55.345Z,7
2023-01-28T03:48:55.333Z,7
2023-01-28T03:49:55.328Z,7
2023-01-28T03:50:55.345Z,8
2023-01-28T03:51:55.343Z,11
2023-01-28T03:52:55.369Z,10
2023-01-28T03:53:55.352Z,10
2023-01-28T03:54:55.366Z,9
2023-01-28T03:55:55.347Z,10
2023-01-28T03:56:55.341Z,10
2023-01-28T03:58:55.402Z,10
2023-01-28T03:59:55.380Z,11
2023-01-28T04:00:56.764Z,10
2023-01-28T04:01:55.419Z,10
2023-01-28T04:02:55.412Z,11
2023-01-28T04:03:55.400Z,10
2023-01-28T04:04:55.346Z,12
2023-01-28T04:05:55.348Z,10
2023-01-28T04:06:55.342Z,10
2023-01-28T04:07:55.345Z,10
2023-01-28T04:08:55.360Z,9
2023-01-28T04:09:55.373Z,9
2023-01-28T04:10:55.354Z,11
2023-01-28T04:11:55.364Z,10
2023-01-28T04:12:55.355Z,11
2023-01-28T04:26:56.490Z,11
2023-01-28T04:29:55.381Z,12
2023-01-28T04:31:55.352Z,12
2023-01-28T04:32:55.371Z,10
2023-01-28T04:34:55.349Z,10
2023-01-28T04:35:55.349Z,10
2023-01-28T04:37:55.365Z,11
2023-01-28T04:39:55.383Z,12
2023-01-28T04:40:55.348Z,12
2023-01-28T04:42:55.360Z,12
2023-01-28T04:43:55.371Z,12
2023-01-28T04:44:55.386Z,13
2023-01-28T04:45:55.525Z,12
2023-01-28T04:46:55.396Z,11
2023-01-28T04:47:56.160Z,12
2023-01-28T04:48:55.353Z,11
2023-01-28T04:49:55.359Z,12
2023-01-28T04:50:55.374Z,12
2023-01-28T04:51:55.384Z,12
2023-01-28T04:52:55.434Z,11
2023-01-28T04:53:55.365Z,11
2023-01-28T04:54:55.366Z,12
2023-01-28T04:55:55.367Z,12
2023-01-28T04:56:55.363Z,11
2023-01-28T04:57:55.377Z,12
2023-01-28T04:58:55.349Z,12
2023-01-28T04:59:55.352Z,11
2023-01-28T05:00:55.368Z,13
2023-01-28T05:01:55.378Z,13
2023-01-28T05:02:55.352Z,12
2023-01-28T05:03:55.385Z,13
2023-01-28T05:04:55.380Z,12
2023-01-28T05:05:55.373Z,12
2023-01-28T05:06:55.372Z,13
2023-01-28T05:07:55.351Z,11
2023-01-28T05:08:55.366Z,11
2023-01-28T05:09:55.493Z,11
2023-01-28T05:10:55.358Z,10
2023-01-28T05:11:55.359Z,12
2023-01-28T05:13:55.372Z,11
2023-01-28T05:14:55.384Z,12
2023-01-28T05:15:55.385Z,11
2023-01-28T05:16:55.382Z,11
2023-01-28T05:17:55.366Z,14
2023-01-28T05:18:55.364Z,11
2023-01-28T05:19:55.392Z,13
2023-01-28T05:20:55.392Z,13
2023-01-28T06:51:55.373Z,14
2023-01-28T07:51:55.382Z,16
2023-01-28T08:15:55.468Z,5
2023-01-28T08:54:55.415Z,13
2023-01-28T09:32:55.412Z,18
2023-01-28T12:15:55.460Z,21
2023-01-28T13:54:55.451Z,21
2023-01-28T15:09:55.459Z,24
2023-01-28T15:12:55.512Z,24
2023-01-28T15:47:55.486Z,20
2023-01-28T16:12:55.489Z,25
2023-01-28T17:17:55.506Z,38
2023-01-28T17:53:55.463Z,47
2023-01-28T18:20:55.463Z,79
2023-01-28T18:40:55.470Z,80
2023-01-28T19:17:55.482Z,55
2023-01-28T21:28:55.493Z,56
2023-01-28T22:39:56.273Z,51
2023-01-28T23:33:55.500Z,53
2023-01-28T23:35:55.510Z,55
